NJE27G LIEE-LIPH
Flight info
| Callsign | NJE27G |
|---|---|
| Flight time | N/A |
| Altitude | 34000 |
| Route | KOVAS Q125 DEXUL DCT NEMIT DCT TIPNI DCT BOA DCT LUMAV DCT ROVIG |
| Aircraft | CL60/M-SBDE1E2E3FGHIJ1J4J5J7M3RWXYZ/LB1V1D1 |
Departure
| Time | 2026-04-29 10:30 |
|---|---|
| Airport | Cagliari Elmas Airport (LIEE) |
Arrival
| Time | N/A |
|---|---|
| Airport | Treviso Airport (LIPH) |
| Time | Latitude | Longitude | Altitude | Speed | Heading |
|---|---|---|---|---|---|
| 2026-04-29 09:50 | 39.24860 | 9.06149 | 17 ft | 0 kts | 226° |
| 2026-04-29 10:25 | 39.24859 | 9.06147 | 19 ft | 1 kts | 226° |
| 2026-04-29 10:26 | 39.24846 | 9.06129 | 19 ft | 4 kts | 228° |
| 2026-04-29 10:26 | 39.24829 | 9.06105 | 19 ft | 4 kts | 227° |
| 2026-04-29 10:26 | 39.24845 | 9.06051 | 19 ft | 11 kts | 318° |
| 2026-04-29 10:26 | 39.24926 | 9.05959 | 19 ft | 19 kts | 317° |
| 2026-04-29 10:27 | 39.25182 | 9.05650 | 20 ft | 29 kts | 313° |
| 2026-04-29 10:27 | 39.25329 | 9.05457 | 20 ft | 32 kts | 310° |
| 2026-04-29 10:27 | 39.25515 | 9.05280 | 20 ft | 33 kts | 314° |
| 2026-04-29 10:28 | 39.25670 | 9.05099 | 20 ft | 29 kts | 319° |
| 2026-04-29 10:28 | 39.25828 | 9.04916 | 20 ft | 32 kts | 318° |
| 2026-04-29 10:28 | 39.25998 | 9.04719 | 20 ft | 31 kts | 319° |
| 2026-04-29 10:28 | 39.26108 | 9.04586 | 20 ft | 14 kts | 310° |
| 2026-04-29 10:29 | 39.26126 | 9.04498 | 20 ft | 6 kts | 269° |
| 2026-04-29 10:29 | 39.26126 | 9.04454 | 20 ft | 6 kts | 270° |
| 2026-04-29 10:29 | 39.26104 | 9.04393 | 20 ft | 7 kts | 224° |
| 2026-04-29 10:29 | 39.26062 | 9.04363 | 20 ft | 5 kts | 140° |
| 2026-04-29 10:30 | 39.26015 | 9.04423 | 20 ft | 24 kts | 138° |
| 2026-04-29 10:30 | 39.25645 | 9.04849 | 20 ft | 121 kts | 139° |
| 2026-04-29 10:30 | 39.24890 | 9.05758 | 588 ft | 160 kts | 139° |
| 2026-04-29 10:30 | 39.24121 | 9.06678 | 1804 ft | 159 kts | 140° |
| 2026-04-29 10:31 | 39.23344 | 9.07609 | 3022 ft | 161 kts | 140° |
| 2026-04-29 10:31 | 39.22527 | 9.08558 | 4131 ft | 169 kts | 140° |
| 2026-04-29 10:31 | 39.21632 | 9.09588 | 5137 ft | 183 kts | 140° |
| 2026-04-29 10:31 | 39.20658 | 9.10711 | 6139 ft | 201 kts | 140° |
| 2026-04-29 10:32 | 39.19556 | 9.11875 | 7143 ft | 214 kts | 152° |
| 2026-04-29 10:32 | 39.18118 | 9.12380 | 8159 ft | 222 kts | 182° |
| 2026-04-29 10:32 | 39.16656 | 9.11755 | 9183 ft | 238 kts | 216° |
| 2026-04-29 10:32 | 39.15478 | 9.10229 | 10213 ft | 252 kts | 226° |
| 2026-04-29 10:33 | 39.14522 | 9.08317 | 11210 ft | 264 kts | 246° |
| 2026-04-29 10:33 | 39.14167 | 9.05973 | 12216 ft | 273 kts | 269° |
| 2026-04-29 10:33 | 39.14614 | 9.03602 | 13208 ft | 283 kts | 295° |
| 2026-04-29 10:33 | 39.15892 | 9.01609 | 14029 ft | 300 kts | 315° |
| 2026-04-29 10:34 | 39.17489 | 8.99779 | 14790 ft | 316 kts | 316° |
| 2026-04-29 10:34 | 39.19144 | 8.97871 | 15538 ft | 325 kts | 315° |
| 2026-04-29 10:34 | 39.20835 | 8.95919 | 16298 ft | 327 kts | 315° |
| 2026-04-29 10:34 | 39.22641 | 8.94126 | 17045 ft | 329 kts | 328° |
| 2026-04-29 10:35 | 39.24767 | 8.93102 | 17794 ft | 337 kts | 347° |
| 2026-04-29 10:35 | 39.27164 | 8.92816 | 18546 ft | 351 kts | 354° |
| 2026-04-29 10:35 | 39.29634 | 8.92645 | 19192 ft | 365 kts | 354° |
| 2026-04-29 10:35 | 39.32245 | 8.92456 | 19824 ft | 378 kts | 354° |
| 2026-04-29 10:36 | 39.34896 | 8.92264 | 20445 ft | 390 kts | 354° |
| 2026-04-29 10:36 | 39.37678 | 8.92063 | 21082 ft | 400 kts | 354° |
| 2026-04-29 10:36 | 39.40470 | 8.91887 | 21709 ft | 410 kts | 357° |
| 2026-04-29 10:36 | 39.43350 | 8.92336 | 22353 ft | 422 kts | 13° |
| 2026-04-29 10:37 | 39.46089 | 8.93829 | 22990 ft | 431 kts | 26° |
| 2026-04-29 10:37 | 39.48727 | 8.95713 | 23604 ft | 438 kts | 27° |
| 2026-04-29 10:37 | 39.51419 | 8.97634 | 24238 ft | 443 kts | 27° |
| 2026-04-29 10:37 | 39.54124 | 8.99564 | 24881 ft | 447 kts | 27° |
| 2026-04-29 10:38 | 39.56876 | 9.01529 | 25526 ft | 451 kts | 27° |
| 2026-04-29 10:38 | 39.59648 | 9.03510 | 26170 ft | 454 kts | 27° |
| 2026-04-29 10:38 | 39.62431 | 9.05500 | 26815 ft | 456 kts | 27° |
| 2026-04-29 10:38 | 39.65327 | 9.07270 | 27465 ft | 455 kts | 17° |
| 2026-04-29 10:39 | 39.68361 | 9.08357 | 28085 ft | 456 kts | 12° |
| 2026-04-29 10:39 | 39.71451 | 9.09381 | 28715 ft | 457 kts | 12° |
| 2026-04-29 10:39 | 39.74565 | 9.10422 | 29362 ft | 458 kts | 12° |
| 2026-04-29 10:39 | 39.77621 | 9.11445 | 29975 ft | 460 kts | 12° |
| 2026-04-29 10:40 | 39.80760 | 9.12497 | 30598 ft | 460 kts | 12° |
| 2026-04-29 10:40 | 39.83824 | 9.13526 | 31210 ft | 460 kts | 12° |
| 2026-04-29 10:40 | 39.86930 | 9.14664 | 31851 ft | 460 kts | 15° |
| 2026-04-29 10:40 | 39.89940 | 9.15946 | 32482 ft | 458 kts | 16° |
| 2026-04-29 10:41 | 39.92958 | 9.17240 | 33106 ft | 455 kts | 16° |
| 2026-04-29 10:41 | 39.95954 | 9.18525 | 33716 ft | 453 kts | 16° |
| 2026-04-29 10:41 | 39.98988 | 9.19826 | 34074 ft | 458 kts | 16° |
| 2026-04-29 10:41 | 40.02029 | 9.21131 | 34197 ft | 468 kts | 17° |
| 2026-04-29 10:42 | 40.05166 | 9.22479 | 34263 ft | 476 kts | 17° |
| 2026-04-29 10:42 | 40.11499 | 9.25207 | 34310 ft | 478 kts | 17° |
| 2026-04-29 10:42 | 40.14625 | 9.26556 | 34170 ft | 475 kts | 17° |
| 2026-04-29 10:43 | 40.17755 | 9.27908 | 33997 ft | 472 kts | 17° |
| 2026-04-29 10:43 | 40.20869 | 9.29255 | 33881 ft | 471 kts | 17° |
| 2026-04-29 10:43 | 40.23992 | 9.30606 | 33863 ft | 470 kts | 17° |
| 2026-04-29 10:44 | 40.30196 | 9.33294 | 33890 ft | 471 kts | 17° |
| 2026-04-29 10:44 | 40.36468 | 9.36016 | 33911 ft | 473 kts | 17° |
| 2026-04-29 10:45 | 40.42731 | 9.38740 | 33924 ft | 474 kts | 17° |
| 2026-04-29 10:45 | 40.48993 | 9.41470 | 33917 ft | 473 kts | 17° |
| 2026-04-29 10:46 | 40.55220 | 9.44190 | 34266 ft | 466 kts | 17° |
| 2026-04-29 10:46 | 40.58287 | 9.45531 | 34529 ft | 466 kts | 17° |
| 2026-04-29 10:46 | 40.61403 | 9.46894 | 34775 ft | 467 kts | 17° |
| 2026-04-29 10:46 | 40.64500 | 9.48250 | 34930 ft | 472 kts | 17° |
| 2026-04-29 10:47 | 40.67674 | 9.49641 | 34562 ft | 482 kts | 17° |
| 2026-04-29 10:47 | 40.70824 | 9.51024 | 34291 ft | 477 kts | 17° |
| 2026-04-29 10:47 | 40.73963 | 9.52405 | 34058 ft | 474 kts | 17° |
| 2026-04-29 10:47 | 40.77071 | 9.53772 | 33835 ft | 469 kts | 17° |
| 2026-04-29 10:48 | 40.80130 | 9.55120 | 33942 ft | 463 kts | 17° |
| 2026-04-29 10:48 | 40.86293 | 9.57836 | 33995 ft | 469 kts | 17° |
| 2026-04-29 10:49 | 40.92554 | 9.60601 | 34015 ft | 477 kts | 17° |
| 2026-04-29 10:49 | 40.98836 | 9.63383 | 33997 ft | 475 kts | 17° |
| 2026-04-29 10:50 | 41.05049 | 9.66140 | 33988 ft | 471 kts | 17° |
| 2026-04-29 10:50 | 41.11274 | 9.68906 | 33997 ft | 472 kts | 17° |
| 2026-04-29 10:51 | 41.17532 | 9.71693 | 34002 ft | 473 kts | 17° |
| 2026-04-29 10:51 | 41.23745 | 9.74465 | 34001 ft | 472 kts | 17° |
| 2026-04-29 10:52 | 41.29978 | 9.77253 | 33998 ft | 472 kts | 17° |
| 2026-04-29 10:52 | 41.36210 | 9.80045 | 33995 ft | 472 kts | 17° |
| 2026-04-29 10:53 | 41.42441 | 9.82843 | 34002 ft | 472 kts | 17° |
| 2026-04-29 10:53 | 41.48655 | 9.85638 | 34012 ft | 472 kts | 17° |
| 2026-04-29 10:54 | 41.54878 | 9.88444 | 34018 ft | 472 kts | 17° |
| 2026-04-29 10:54 | 41.61095 | 9.91252 | 34024 ft | 472 kts | 17° |
| 2026-04-29 10:55 | 41.67302 | 9.94062 | 34032 ft | 472 kts | 17° |
| 2026-04-29 10:55 | 41.73524 | 9.96884 | 34041 ft | 472 kts | 17° |
| 2026-04-29 10:56 | 41.79779 | 9.99727 | 34046 ft | 472 kts | 17° |
| 2026-04-29 10:56 | 41.85995 | 10.02557 | 34053 ft | 472 kts | 17° |
| 2026-04-29 10:57 | 41.92191 | 10.05385 | 34050 ft | 472 kts | 17° |
| 2026-04-29 10:57 | 41.98454 | 10.08249 | 34052 ft | 472 kts | 17° |
| 2026-04-29 10:58 | 42.04660 | 10.11093 | 34060 ft | 472 kts | 17° |
| 2026-04-29 10:58 | 42.10920 | 10.13967 | 34063 ft | 472 kts | 17° |
| 2026-04-29 10:59 | 42.17117 | 10.16819 | 34056 ft | 473 kts | 17° |
| 2026-04-29 10:59 | 42.23351 | 10.19694 | 34049 ft | 472 kts | 17° |
| 2026-04-29 11:00 | 42.29583 | 10.22574 | 34051 ft | 472 kts | 17° |
| 2026-04-29 11:00 | 42.35772 | 10.25440 | 34057 ft | 472 kts | 17° |
| 2026-04-29 11:01 | 42.42007 | 10.28406 | 34062 ft | 473 kts | 17° |
| 2026-04-29 11:01 | 42.48193 | 10.31373 | 34068 ft | 473 kts | 17° |
| 2026-04-29 11:02 | 42.54409 | 10.34360 | 34074 ft | 473 kts | 17° |
| 2026-04-29 11:02 | 42.60620 | 10.37350 | 34081 ft | 473 kts | 17° |
| 2026-04-29 11:03 | 42.66821 | 10.40341 | 34087 ft | 474 kts | 17° |
| 2026-04-29 11:03 | 42.73048 | 10.43352 | 34093 ft | 474 kts | 17° |
| 2026-04-29 11:04 | 42.79296 | 10.46379 | 34094 ft | 474 kts | 17° |
| 2026-04-29 11:04 | 42.85503 | 10.49394 | 34094 ft | 474 kts | 17° |
| 2026-04-29 11:05 | 42.91698 | 10.52408 | 34092 ft | 474 kts | 17° |
| 2026-04-29 11:05 | 42.97957 | 10.55460 | 34089 ft | 475 kts | 17° |
| 2026-04-29 11:06 | 43.04194 | 10.58507 | 34080 ft | 475 kts | 17° |
| 2026-04-29 11:06 | 43.10391 | 10.61543 | 34073 ft | 475 kts | 17° |
| 2026-04-29 11:07 | 43.16665 | 10.64622 | 34070 ft | 475 kts | 16° |
| 2026-04-29 11:07 | 43.22928 | 10.67702 | 34064 ft | 475 kts | 17° |
| 2026-04-29 11:08 | 43.29150 | 10.70769 | 34056 ft | 476 kts | 17° |
| 2026-04-29 11:08 | 43.35409 | 10.73862 | 34035 ft | 476 kts | 17° |
| 2026-04-29 11:09 | 43.41641 | 10.76948 | 34027 ft | 476 kts | 17° |
| 2026-04-29 11:09 | 43.47877 | 10.80043 | 34014 ft | 476 kts | 17° |
| 2026-04-29 11:10 | 43.54149 | 10.83162 | 34009 ft | 477 kts | 17° |
| 2026-04-29 11:10 | 43.60367 | 10.86261 | 34003 ft | 477 kts | 17° |
| 2026-04-29 11:11 | 43.66634 | 10.89392 | 33999 ft | 477 kts | 17° |
| 2026-04-29 11:11 | 43.72873 | 10.92516 | 33992 ft | 477 kts | 17° |
| 2026-04-29 11:12 | 43.79141 | 10.95596 | 34021 ft | 476 kts | 15° |
| 2026-04-29 11:12 | 43.85431 | 10.98612 | 34072 ft | 476 kts | 16° |
| 2026-04-29 11:13 | 43.91712 | 11.01637 | 34039 ft | 478 kts | 16° |
| 2026-04-29 11:13 | 43.97968 | 11.04663 | 34119 ft | 475 kts | 16° |
| 2026-04-29 11:14 | 44.04239 | 11.07705 | 33869 ft | 475 kts | 16° |
| 2026-04-29 11:14 | 44.07341 | 11.09216 | 33379 ft | 467 kts | 15° |
| 2026-04-29 11:14 | 44.10373 | 11.10694 | 32842 ft | 461 kts | 15° |
| 2026-04-29 11:14 | 44.13387 | 11.12164 | 32177 ft | 458 kts | 15° |
| 2026-04-29 11:15 | 44.16393 | 11.13634 | 31581 ft | 455 kts | 15° |
| 2026-04-29 11:15 | 44.19397 | 11.15103 | 30997 ft | 455 kts | 15° |
| 2026-04-29 11:15 | 44.22409 | 11.16577 | 30423 ft | 456 kts | 15° |
| 2026-04-29 11:15 | 44.25420 | 11.18053 | 29822 ft | 456 kts | 15° |
| 2026-04-29 11:16 | 44.28400 | 11.19515 | 29233 ft | 458 kts | 15° |
| 2026-04-29 11:16 | 44.31412 | 11.20996 | 28620 ft | 456 kts | 15° |
| 2026-04-29 11:16 | 44.34410 | 11.22472 | 28013 ft | 452 kts | 15° |
| 2026-04-29 11:16 | 44.37353 | 11.23923 | 27438 ft | 447 kts | 15° |
| 2026-04-29 11:17 | 44.40287 | 11.25372 | 26878 ft | 444 kts | 15° |
| 2026-04-29 11:17 | 44.43196 | 11.26809 | 26316 ft | 440 kts | 15° |
| 2026-04-29 11:17 | 44.46095 | 11.28243 | 25760 ft | 436 kts | 15° |
| 2026-04-29 11:17 | 44.48941 | 11.29652 | 25197 ft | 433 kts | 15° |
| 2026-04-29 11:18 | 44.51772 | 11.31055 | 24653 ft | 429 kts | 15° |
| 2026-04-29 11:18 | 44.54605 | 11.32461 | 24112 ft | 426 kts | 16° |